»·PEaware :: N1BD KSNA-KMRY

N1BD :: KSNA-KMRY

FLIGHT INFORMATION

Flight Status: Arrived
Operator: Privately registered:
United States
More flights under this callsign
Pilot: Anonymous 26385 (26385)
Aircraft: SOCATA TBM-900
(TBM9)
More flights by this aircraft type
Origin: KSNA John Wayne-Orange Co
United States
Destination: KMRY Monterey Peninsula
United States
More flights between these airports :: More routes between these airports
Route: +HHERO3 IKAYE RZS WIGGL
File this flight plan on PilotEdge
Remarks:
Altitude:
(Current/Filed)
30,000ft
Speed:
(Current/Filed)
190kts
Departed: 14-Jan-20 06:46 PM
Arrived: 14-Jan-20 07:59 PM
Distance/Time
Traveled:
262nm/1:12
Distance/Time
To Go:
Arrived

Flight Plot

Page will automatically refresh every two minutes.

Flight plan parsing failed; only flown route is shown


Map Options




Map Legend


Flown Route
Filed Route
Departure Airport
Arrival Airport
Navaid (VOR, NDB)
Fix

Horizontal Profiles

Position Reports

Time Latitude Longitude Heading Altitude Ground
Speed
14-Jan-20 18:28 33.672637 -117.866161 258 46ft 0kts
14-Jan-20 18:29 33.672637 -117.866160 258 46ft 0kts
14-Jan-20 18:30 33.672637 -117.866160 258 46ft 0kts
14-Jan-20 18:31 33.672637 -117.866160 258 46ft 0kts
14-Jan-20 18:32 33.672637 -117.866160 258 46ft 0kts
14-Jan-20 18:33 33.672637 -117.866160 258 46ft 0kts
14-Jan-20 18:34 33.672637 -117.866160 258 46ft 0kts
14-Jan-20 18:35 33.672637 -117.866160 258 46ft 0kts
14-Jan-20 18:36 33.672637 -117.866160 258 46ft 0kts
14-Jan-20 18:37 33.672637 -117.866160 258 46ft 0kts
14-Jan-20 18:38 33.672637 -117.866160 258 46ft 0kts
14-Jan-20 18:39 33.672637 -117.866160 258 46ft 0kts
14-Jan-20 18:40 33.672637 -117.866160 258 46ft 0kts
14-Jan-20 18:41 33.672885 -117.866954 309 47ft 2kts
14-Jan-20 18:42 33.677348 -117.864482 27 40ft 28kts
14-Jan-20 18:43 33.679953 -117.863596 296 39ft 0kts
14-Jan-20 18:44 33.679953 -117.863596 296 39ft 0kts
14-Jan-20 18:45 33.678805 -117.866902 208 42ft 66kts
14-Jan-20 18:46 33.651334 -117.885365 207 1529ft 130kts
14-Jan-20 18:47 33.615131 -117.892400 189 3618ft 133kts
14-Jan-20 18:48 33.577311 -117.898416 189 5815ft 143kts
14-Jan-20 18:49 33.547484 -117.926518 226 7837ft 141kts
14-Jan-20 18:50 33.519264 -117.958332 228 9962ft 139kts
14-Jan-20 18:51 33.491705 -117.989430 231 12188ft 134kts
14-Jan-20 18:52 33.466369 -118.031107 243 13051ft 198kts
14-Jan-20 18:53 33.440470 -118.083707 244 15341ft 151kts
14-Jan-20 18:54 33.419635 -118.126202 244 17199ft 152kts
14-Jan-20 18:55 33.415206 -118.174032 279 19196ft 155kts
14-Jan-20 18:56 33.424929 -118.224999 280 21216ft 161kts
14-Jan-20 18:57 33.435125 -118.277637 280 23085ft 166kts
14-Jan-20 18:58 33.452304 -118.329368 292 24821ft 177kts
14-Jan-20 18:59 33.475126 -118.381653 291 26835ft 180kts
14-Jan-20 19:00 33.498577 -118.435417 290 28676ft 186kts
14-Jan-20 19:01 33.523567 -118.490941 298 30133ft 211kts
14-Jan-20 19:02 33.563652 -118.553770 300 30133ft 256kts
14-Jan-20 19:03 33.609020 -118.624527 300 30119ft 274kts
14-Jan-20 19:04 33.656004 -118.697906 300 30132ft 283kts
14-Jan-20 19:05 33.725711 -118.750022 324 30133ft 303kts
14-Jan-20 19:06 33.799840 -118.795966 324 30131ft 304kts
14-Jan-20 19:07 33.874788 -118.842596 324 30130ft 305kts
14-Jan-20 19:08 33.950018 -118.889516 324 30130ft 305kts
14-Jan-20 19:09 34.025785 -118.936815 325 30132ft 306kts
14-Jan-20 19:10 34.101234 -118.984066 325 30129ft 305kts
14-Jan-20 19:11 34.160690 -119.048109 296 30126ft 287kts
14-Jan-20 19:12 34.201609 -119.130794 295 30120ft 286kts
14-Jan-20 19:13 34.241799 -119.213660 295 30116ft 286kts
14-Jan-20 19:14 34.282037 -119.296858 295 30116ft 286kts
14-Jan-20 19:15 34.322160 -119.380015 295 30112ft 286kts
14-Jan-20 19:16 34.362119 -119.463044 295 30105ft 286kts
14-Jan-20 19:17 34.402234 -119.546581 295 30097ft 287kts
14-Jan-20 19:18 34.442225 -119.630050 295 30095ft 287kts
14-Jan-20 19:19 34.482268 -119.713856 295 30103ft 287kts
14-Jan-20 19:20 34.531903 -119.789734 321 30104ft 300kts
14-Jan-20 19:21 34.601529 -119.845444 319 30114ft 300kts
14-Jan-20 19:22 34.670670 -119.901509 319 30122ft 299kts
14-Jan-20 19:23 34.739981 -119.957852 319 30131ft 299kts
14-Jan-20 19:24 34.808794 -120.013925 319 30138ft 298kts
14-Jan-20 19:25 34.877561 -120.070027 319 30143ft 297kts
14-Jan-20 19:26 34.945959 -120.125953 319 30150ft 295kts
14-Jan-20 19:27 35.013906 -120.181642 319 30156ft 294kts
14-Jan-20 19:28 35.081773 -120.237358 318 30162ft 293kts
14-Jan-20 19:29 35.148493 -120.292259 318 30162ft 293kts
14-Jan-20 19:30 35.215646 -120.347636 318 30165ft 291kts
14-Jan-20 19:31 35.283859 -120.404031 318 29328ft 305kts
14-Jan-20 19:32 35.354999 -120.462925 318 27819ft 312kts
14-Jan-20 19:33 35.427069 -120.522727 319 26286ft 313kts
14-Jan-20 19:34 35.498773 -120.582341 319 24745ft 310kts
14-Jan-20 19:35 35.569540 -120.641290 319 23201ft 305kts
14-Jan-20 19:36 35.638717 -120.699070 319 21700ft 297kts
14-Jan-20 19:37 35.706601 -120.755890 319 20210ft 294kts
14-Jan-20 19:38 35.772929 -120.811502 319 18712ft 284kts
14-Jan-20 19:39 35.837488 -120.865778 319 17212ft 280kts
14-Jan-20 19:40 35.901444 -120.919628 320 15710ft 277kts
14-Jan-20 19:41 35.964007 -120.972420 321 14197ft 270kts
14-Jan-20 19:42 36.025499 -121.024381 321 12950ft 260kts
14-Jan-20 19:43 36.081865 -121.072084 321 12956ft 237kts
14-Jan-20 19:44 36.133019 -121.115482 321 12972ft 233kts
14-Jan-20 19:45 36.186185 -121.160663 321 12983ft 232kts
14-Jan-20 19:46 36.239403 -121.205975 321 12989ft 232kts
14-Jan-20 19:47 36.292712 -121.251413 321 12989ft 232kts
14-Jan-20 19:48 36.346136 -121.297040 321 12989ft 233kts
14-Jan-20 19:49 36.400082 -121.343217 321 12347ft 247kts
14-Jan-20 19:50 36.438152 -121.409839 294 10524ft 244kts
14-Jan-20 19:51 36.465239 -121.488651 294 8714ft 253kts
14-Jan-20 19:52 36.493836 -121.568407 294 6894ft 253kts
14-Jan-20 19:53 36.519282 -121.643754 294 4876ft 223kts
14-Jan-20 19:54 36.541278 -121.708985 296 3113ft 190kts
14-Jan-20 19:55 36.561829 -121.764941 298 1847ft 143kts
14-Jan-20 19:56 36.573217 -121.801526 288 1233ft 101kts
14-Jan-20 19:57 36.583084 -121.832771 293 252ft 85kts
14-Jan-20 19:58 36.585189 -121.841390 228 230ft 0kts
14-Jan-20 19:59 36.586761 -121.846282 303 193ft 17kts
14-Jan-20 20:00 36.586653 -121.847437 47 192ft 0kts
14-Jan-20 20:01 36.586653 -121.847437 47 192ft 0kts
14-Jan-20 20:02 36.586653 -121.847437 47 192ft 0kts
14-Jan-20 20:03 36.586653 -121.847437 47 192ft 0kts
14-Jan-20 20:04 36.586653 -121.847437 47 192ft 0kts
14-Jan-20 20:05 36.586653 -121.847437 47 192ft 0kts
14-Jan-20 20:06 36.586653 -121.847437 47 192ft 0kts
14-Jan-20 20:07 36.586653 -121.847437 47 192ft 0kts
14-Jan-20 20:08 36.586653 -121.847437 47 192ft 0kts
14-Jan-20 20:09 36.586653 -121.847437 47 192ft 0kts
14-Jan-20 20:10 36.586653 -121.847437 47 192ft 0kts
14-Jan-20 20:11 36.586653 -121.847437 47 192ft 0kts
14-Jan-20 20:12 36.586653 -121.847437 47 192ft 0kts

Navigation Log

Ident Type
Flight plan parsing failed, navigation log unavailable